Latest Weather Observations for Coober Pedy Airport

IDS60801

Issued at 11:31 am CDT Wednesday 28 January 2015 (issued every 30 minutes, with the page automatically refreshed every 10 minutes)

About weather observations | Map of weather stations | Latest weather observations for SA | Other Formats
Station Details ID: 016090 Name: COOBER PEDY AIRPORT Lat: -29.03 Lon: 134.72 Height: 225.0 m
Data from the previous 72 hours. | See also: Recent months at Coober Pedy Airport
Date/Time
CDT
Temp
°C
App
Temp
°C
Dew
Point
Rel
Hum
%
Delta-T
°C
Wind Press
QNH
hPa
Press
MSL
hPa
Rain
since 9 am
mm
Dir
 
Spd
km/h
Gust
km/h
Spd
kts
Gust
kts
28/11:30am 25.6 22.4 6.7 30 10.0 SE 13 20 7 11 1014.8 1013.2 0.0
28/11:00am 24.1 19.8 6.8 33 9.1 SE 19 28 10 15 1014.9 1013.3 0.0
28/10:30am 23.0 17.8 7.1 36 8.3 SE 24 30 13 16 1015.2 1013.7 0.0
28/10:00am 22.2 16.7 7.6 39 7.7 SE 26 33 14 18 1015.0 1013.4 0.0
28/09:30am 20.5 14.2 7.5 43 6.7 SE 30 37 16 20 1015.0 1013.4 0.0
28/09:00am 20.1 13.9 7.8 45 6.4 SE 30 35 16 19 1014.8 1013.2 0.0
28/08:30am 19.1 12.9 7.8 48 5.8 SSE 30 35 16 19 1014.6 1013.0 0.0
28/08:00am 18.3 12.8 7.4 49 5.6 SSE 26 33 14 18 1014.3 1012.7 0.0
28/07:30am 17.7 11.8 7.4 51 5.2 SE 28 32 15 17 1013.9 1012.3 0.0
28/07:00am 17.4 11.7 6.6 49 5.4 SE 26 32 14 17 1013.7 1012.1 0.0
28/06:30am 17.7 12.5 5.6 45 5.9 SE 22 28 12 15 1013.3 1011.7 0.0
28/06:00am 18.2 12.8 4.7 41 6.5 SE 22 26 12 14 1013.1 1011.5 0.0
28/05:30am 18.7 13.7 4.5 39 6.9 SE 20 24 11 13 1012.8 1011.2 0.0
28/05:00am 19.2 14.0 3.8 36 7.4 SE 20 28 11 15 1012.6 1011.1 0.0
28/04:30am 19.0 13.7 2.0 32 7.8 SSE 19 24 10 13 1012.6 1011.1 0.0
28/04:00am 20.3 14.6 2.6 31 8.4 SE 22 28 12 15 1012.4 1010.9 0.0
28/03:30am 20.5 15.1 2.3 30 8.6 SE 20 26 11 14 1012.5 1011.0 0.0
28/03:00am 20.8 15.5 2.1 29 8.8 SE 19 24 10 13 1012.9 1011.3 0.0
28/02:30am 21.3 16.1 2.6 29 8.9 SSE 19 20 10 11 1012.8 1011.2 0.0
28/02:00am 21.1 16.6 2.4 29 8.8 SSE 15 17 8 9 1012.9 1011.3 0.0
28/01:30am 21.6 17.1 2.3 28 9.1 SSE 15 15 8 8 1013.2 1011.6 0.0
28/01:00am 22.2 17.3 2.3 27 9.5 SSE 17 19 9 10 1013.3 1011.7 0.0
28/12:30am 22.6 17.3 2.1 26 9.7 SSE 19 20 10 11 1013.3 1011.7 0.0
28/12:00am 23.1 18.2 2.0 25 10.0 SE 17 20 9 11 1013.6 1012.0 0.0
 
Date/Time
CDT
Temp
°C
App
Temp
°C
Dew
Point
Rel
Hum
%
Delta-T
°C
Wind Press
QNH
hPa
Press
MSL
hPa
Rain
since 9 am
mm
Dir
 
Spd
km/h
Gust
km/h
Spd
kts
Gust
kts
27/11:30pm 23.8 18.3 2.0 24 10.4 SSE 20 26 11 14 1013.8 1012.2 0.0
27/11:00pm 24.3 18.7 1.2 22 10.9 SSE 20 24 11 13 1013.6 1012.0 0.0
27/10:30pm 25.0 19.3 0.5 20 11.5 SSE 20 24 11 13 1013.4 1011.8 0.0
27/10:00pm 25.5 19.6 -0.5 18 12.0 SSE 20 24 11 13 1013.3 1011.7 0.0
27/09:30pm 26.0 19.3 -0.9 17 12.4 SSE 24 28 13 15 1013.0 1011.4 0.0
27/09:00pm 26.6 19.6 -0.4 17 12.6 SSE 26 33 14 18 1012.8 1011.2 0.0
27/08:30pm 27.3 19.9 -0.7 16 13.1 SSE 28 35 15 19 1012.4 1010.9 0.0
27/08:00pm 28.0 20.7 -0.1 16 13.3 S 28 39 15 21 1012.1 1010.6 0.0
27/07:30pm 28.3 20.6 0.1 16 13.5 S 30 43 16 23 1011.7 1010.2 0.0
27/07:00pm 28.4 21.8 1.8 18 13.1 S 26 35 14 19 1011.7 1010.2 0.0
27/06:30pm 29.4 22.1 2.6 18 13.5 S 30 41 16 22 1011.7 1010.2 0.0
27/06:00pm 29.0 22.8 2.3 18 13.3 S 24 39 13 21 1011.8 1010.3 0.0
27/05:33pm 29.3 22.0 2.5 18 13.4 S 30 48 16 26 1011.7 1010.2 0.0
27/05:30pm 29.2 21.5 2.5 18 13.4 S 32 48 17 26 1011.7 1010.2 0.0
27/05:24pm 29.4 22.5 2.6 18 13.5 S 28 48 15 26 1011.6 1010.1 0.0
27/05:00pm 28.6 22.1 2.7 19 13.0 SSW 26 43 14 23 1012.0 1010.5 0.0
27/04:30pm 28.7 22.6 2.8 19 13.0 S 24 35 13 19 1012.2 1010.7 0.0
27/04:00pm 29.0 23.1 3.8 20 12.9 SSW 24 37 13 20 1012.3 1010.8 0.0
27/03:30pm 28.9 23.3 3.7 20 12.9 S 22 33 12 18 1012.6 1011.1 0.0
27/03:00pm 28.2 22.2 3.1 20 12.6 S 24 43 13 23 1013.2 1011.6 0.0
27/02:30pm 28.2 23.0 3.8 21 12.4 S 20 35 11 19 1013.5 1011.9 0.0
27/02:00pm 27.1 22.2 4.2 23 11.7 SSE 19 33 10 18 1014.0 1012.4 0.0
27/01:30pm 26.4 20.2 4.2 24 11.3 S 26 37 14 20 1014.5 1012.9 0.0
27/01:22pm 27.0 21.9 4.1 23 11.6 S 20 37 11 20 1014.3 1012.7 0.0
27/01:00pm 25.9 21.1 4.4 25 10.9 S 19 37 10 20 1014.6 1013.0 0.0
27/12:30pm 25.9 21.5 4.9 26 10.7 SE 17 28 9 15 1015.2 1013.7 0.0
27/12:00pm 25.6 20.8 5.8 28 10.3 SSE 20 33 11 18 1015.5 1014.0 0.0
27/11:30am 24.3 19.1 5.6 30 9.6 SE 22 32 12 17 1015.6 1014.1 0.0
27/11:00am 24.0 18.5 5.8 31 9.4 SE 24 35 13 19 1015.9 1014.4 0.0
27/10:30am 22.9 17.4 5.8 33 8.7 SE 24 32 13 17 1015.9 1014.4 0.0
27/10:00am 21.4 15.9 5.7 36 7.9 SE 24 32 13 17 1016.0 1014.5 0.0
27/09:30am 20.6 14.0 6.2 39 7.3 SE 30 35 16 19 1016.0 1014.5 0.0
27/09:00am 19.8 13.2 6.2 41 6.9 SE 30 37 16 20 1015.7 1014.2 0.0
27/08:30am 19.1 12.5 6.2 43 6.5 SE 30 35 16 19 1015.6 1014.1 0.0
27/08:00am 18.4 13.0 6.3 45 6.1 SE 24 32 13 17 1015.3 1013.8 0.0
27/07:30am 17.9 12.8 6.1 46 5.9 SE 22 28 12 15 1015.1 1013.6 0.0
27/07:00am 17.6 12.9 5.9 46 5.8 SE 20 26 11 14 1014.6 1013.0 0.0
27/06:30am 17.8 13.0 5.7 45 6.0 SE 20 24 11 13 1014.2 1012.6 0.0
27/06:00am 18.0 13.3 6.2 46 5.9 SE 20 24 11 13 1013.9 1012.3 0.0
27/05:30am 18.3 13.3 6.5 46 5.9 SSE 22 26 12 14 1013.8 1012.2 0.0
27/05:00am 18.7 13.3 6.5 45 6.1 SSE 24 28 13 15 1013.6 1012.0 0.0
27/04:30am 19.0 13.7 6.8 45 6.2 S 24 32 13 17 1013.4 1011.8 0.0
27/04:00am 19.2 13.6 7.0 45 6.2 S 26 32 14 17 1013.2 1011.6 0.0
27/03:30am 19.5 13.8 6.9 44 6.4 S 26 32 14 17 1013.3 1011.7 0.0
27/03:00am 19.6 15.0 3.7 35 7.6 S 17 24 9 13 1013.5 1011.9 0.0
27/02:30am 20.5 15.9 3.7 33 8.1 SSE 17 17 9 9 1013.3 1011.7 0.0
27/02:00am 21.2 16.3 3.9 32 8.4 SSE 19 20 10 11 1013.7 1012.1 0.0
27/01:30am 21.4 16.8 3.6 31 8.6 SSE 17 20 9 11 1013.9 1012.3 0.0
27/01:00am 21.8 17.2 3.9 31 8.8 SSE 17 19 9 10 1014.2 1012.6 0.0
27/12:30am 22.5 18.0 4.1 30 9.1 SSE 17 20 9 11 1014.4 1012.8 0.0
27/12:00am 23.1 18.6 4.1 29 9.4 SSE 17 20 9 11 1014.6 1013.0 0.0
 
Date/Time
CDT
Temp
°C
App
Temp
°C
Dew
Point
Rel
Hum
%
Delta-T
°C
Wind Press
QNH
hPa
Press
MSL
hPa
Rain
since 9 am
mm
Dir
 
Spd
km/h
Gust
km/h
Spd
kts
Gust
kts
26/11:30pm 23.5 19.0 4.0 28 9.7 SSE 17 19 9 10 1014.7 1013.1 0.0
26/11:00pm 23.9 19.3 3.8 27 10.0 S 17 19 9 10 1014.7 1013.1 0.0
26/10:30pm 24.2 19.6 3.5 26 10.2 S 17 20 9 11 1014.5 1012.9 0.0
26/10:00pm 24.8 20.2 3.5 25 10.6 S 17 20 9 11 1014.4 1012.8 0.0
26/09:30pm 25.4 20.4 3.4 24 10.9 S 19 22 10 12 1014.0 1012.4 0.0
26/09:00pm 25.9 20.3 3.2 23 11.3 S 22 28 12 15 1013.7 1012.1 0.0
26/08:30pm 26.3 20.5 2.3 21 11.8 S 22 28 12 15 1013.4 1011.8 0.0
26/08:00pm 27.1 21.0 2.9 21 12.0 SSW 24 32 13 17 1013.1 1011.5 0.0
26/07:30pm 28.2 23.2 3.8 21 12.4 S 19 33 10 18 1012.9 1011.3 0.0
26/07:00pm 27.9 22.3 3.6 21 12.3 S 22 32 12 17 1012.8 1011.2 0.0
26/06:30pm 28.3 22.2 2.5 19 12.9 SSW 24 37 13 20 1012.5 1011.0 0.0
26/06:00pm 28.2 21.9 3.8 21 12.4 SSW 26 41 14 22 1012.8 1011.2 0.0
26/05:30pm 27.8 22.9 4.2 22 12.1 SW 19 35 10 19 1013.1 1011.5 0.0
26/05:00pm 27.9 22.4 4.2 22 12.1 SSW 22 32 12 17 1013.3 1011.7 0.0
26/04:30pm 27.8 23.3 4.2 22 12.1 SSW 17 24 9 13 1013.5 1011.9 0.0
26/04:00pm 27.7 22.3 4.7 23 11.9 SW 22 33 12 18 1013.8 1012.2 0.0
26/03:30pm 26.3 21.4 4.1 24 11.2 SW 19 30 10 16 1014.1 1012.5 0.0
26/03:00pm 26.9 22.6 5.2 25 11.2 SW 17 30 9 16 1014.5 1012.9 0.0
26/02:30pm 25.9 21.3 5.5 27 10.5 SSW 19 30 10 16 1014.9 1013.3 0.0
26/02:00pm 25.8 22.3 5.4 27 10.5 SW 13 24 7 13 1015.2 1013.7 0.0
26/01:30pm 25.6 21.7 5.2 27 10.5 SSW 15 28 8 15 1015.7 1014.2 0.0
26/01:00pm 25.9 23.6 5.5 27 10.6 SSE 7 19 4 10 1016.0 1014.5 0.0
26/12:30pm 24.9 20.7 5.7 29 9.9 E 17 24 9 13 1016.3 1014.8 0.0
26/12:00pm 24.2 20.7 5.5 30 9.6 ESE 13 22 7 12 1016.4 1014.9 0.0
26/11:30am 24.0 20.6 5.8 31 9.3 SE 13 20 7 11 1016.4 1014.9 0.0
26/11:00am 22.2 17.9 5.2 33 8.5 SE 17 26 9 14 1016.5 1015.0 0.0
26/10:30am 21.4 16.6 5.7 36 7.9 SE 20 30 11 16 1016.6 1015.1 0.0
26/10:00am 20.6 15.5 5.8 38 7.4 SE 22 32 12 17 1016.6 1015.1 0.0
26/09:30am 19.7 13.9 6.1 41 6.8 SE 26 32 14 17 1016.5 1015.0 0.0
26/09:00am 18.5 11.9 6.0 44 6.2 SE 30 37 16 20 1016.2 1014.7 0.0
26/08:30am 17.6 11.8 6.2 47 5.7 SSE 26 33 14 18 1016.0 1014.5 0.0
26/08:00am 16.8 11.3 6.0 49 5.3 S 24 28 13 15 1015.9 1014.4 0.0
26/07:30am 15.9 11.2 6.1 52 4.8 S 20 26 11 14 1015.6 1014.1 0.0
26/07:00am 15.9 10.4 6.1 52 4.8 S 24 30 13 16 1015.3 1013.8 0.0
26/06:30am 16.2 10.4 6.1 51 5.0 S 26 32 14 17 1014.9 1013.3 0.0
26/06:00am 16.5 10.3 6.1 50 5.1 S 28 32 15 17 1014.7 1013.1 0.0
26/05:30am 16.8 10.2 6.0 49 5.3 S 30 35 16 19 1014.4 1012.8 0.0
26/05:00am 16.9 10.3 6.1 49 5.3 S 30 37 16 20 1014.3 1012.7 0.0
26/04:30am 17.1 10.6 6.3 49 5.4 S 30 39 16 21 1014.5 1012.9 0.0
26/04:00am 17.4 10.3 6.3 48 5.5 S 33 43 18 23 1014.2 1012.6 0.0
26/03:30am 17.7 10.2 6.3 47 5.7 S 35 43 19 23 1014.2 1012.6 0.0
26/03:00am 18.3 10.4 6.2 45 6.0 S 37 46 20 25 1013.9 1012.3 0.0
26/02:30am 19.2 11.9 5.6 41 6.7 S 33 43 18 23 1014.2 1012.6 0.0
26/02:00am 20.1 13.4 5.4 38 7.3 S 30 39 16 21 1014.4 1012.8 0.0
26/01:30am 21.0 13.3 5.4 36 7.8 S 35 46 19 25 1014.1 1012.5 0.0
26/01:00am 21.8 14.4 4.8 33 8.5 S 33 46 18 25 1014.1 1012.5 0.0
26/12:46am 22.5 17.1 4.5 31 8.9 S 22 44 12 24 1014.0 1012.4 0.0
26/12:30am 23.2 18.2 3.7 28 9.6 SSE 19 24 10 13 1013.9 1012.3 0.0
26/12:00am 23.9 18.8 4.3 28 9.8 SSE 20 26 11 14 1013.8 1012.2 0.0
 
Date/Time
CDT
Temp
°C
App
Temp
°C
Dew
Point
Rel
Hum
%
Delta-T
°C
Wind Press
QNH
hPa
Press
MSL
hPa
Rain
since 9 am
mm
Dir
 
Spd
km/h
Gust
km/h
Spd
kts
Gust
kts
25/11:30pm 24.2 19.7 4.0 27 10.1 SSE 17 20 9 11 1013.7 1012.1 0.0
25/11:00pm 25.1 20.0 4.3 26 10.5 SSE 20 26 11 14 1013.6 1012.0 0.0
25/10:30pm 25.3 20.2 3.9 25 10.7 S 20 24 11 13 1013.3 1011.7 0.0
25/10:00pm 25.8 20.4 4.3 25 10.9 S 22 28 12 15 1013.1 1011.5 0.0
25/09:30pm 26.5 20.3 4.3 24 11.3 S 26 32 14 17 1012.6 1011.1 0.0
25/09:00pm 27.0 21.4 5.3 25 11.3 S 24 30 13 16 1012.4 1010.9 0.0
25/08:30pm 27.5 21.6 5.7 25 11.4 S 26 33 14 18 1012.1 1010.6 0.0
25/08:00pm 28.2 22.2 5.1 23 12.0 S 26 33 14 18 1011.9 1010.4 0.0
25/07:30pm 28.6 22.9 4.8 22 12.4 SSW 24 32 13 17 1011.7 1010.2 0.0
25/07:00pm 29.3 23.7 5.4 22 12.6 SSW 24 35 13 19 1011.5 1010.0 0.0
25/06:30pm 29.7 23.3 5.1 21 12.9 SW 28 41 15 22 1011.6 1010.1 0.0
25/06:00pm 29.6 23.2 5.0 21 12.9 SSW 28 39 15 21 1011.6 1010.1 0.0
25/05:30pm 29.0 23.1 5.8 23 12.3 SSW 26 44 14 24 1011.9 1010.4 0.0
25/05:00pm 30.0 24.8 5.3 21 13.0 SSW 22 39 12 21 1012.2 1010.7 0.0
25/04:30pm 28.7 22.0 5.5 23 12.2 SSW 30 39 16 21 1012.3 1010.8 0.0
25/04:00pm 27.8 22.7 6.0 25 11.5 SSW 22 33 12 18 1012.5 1011.0 0.0
25/03:30pm 28.5 23.3 7.1 26 11.6 SSW 24 43 13 23 1012.8 1011.2 0.0
25/03:00pm 27.8 22.3 7.6 28 11.0 SSW 26 43 14 23 1012.9 1011.3 0.0
25/02:30pm 27.4 23.0 7.3 28 10.8 SSW 20 39 11 21 1013.4 1011.8 0.0
25/02:00pm 27.2 22.5 9.1 32 10.0 SW 24 37 13 20 1013.7 1012.1 0.0
25/01:30pm 25.8 21.0 8.8 34 9.3 SSW 24 35 13 19 1014.1 1012.5 0.0
25/01:00pm 25.3 21.1 8.3 34 9.2 S 20 32 11 17 1014.4 1012.8 0.0
25/12:30pm 24.7 20.6 8.6 36 8.7 SSW 20 35 11 19 1014.7 1013.1 0.0
25/12:00pm 23.6 20.1 8.8 39 8.0 SSW 17 26 9 14 1014.9 1013.3 0.0

Other Formats:

Comma delimited format used in spreadsheet applications
http://www.bom.gov.au/fwo/IDS60801/IDS60801.95458.axf

JavaScript Object Notation format (JSON) in row-major order
http://www.bom.gov.au/fwo/IDS60801/IDS60801.95458.json